sensor_id;sensor_type;location;lat;lon;timestamp;pressure;altitude;pressure_sealevel;temperature;humidity
39141;BME280;24875;48.436;10.298;2022-10-28T00:01:12;97144.88;;;10.77;100.00
39141;BME280;24875;48.436;10.298;2022-10-28T00:03:41;97144.53;;;10.72;100.00
39141;BME280;24875;48.436;10.298;2022-10-28T00:06:09;97148.16;;;10.71;100.00
39141;BME280;24875;48.436;10.298;2022-10-28T00:08:36;97149.84;;;10.54;100.00
39141;BME280;24875;48.436;10.298;2022-10-28T00:11:06;97146.69;;;10.51;100.00
39141;BME280;24875;48.436;10.298;2022-10-28T00:13:34;97152.44;;;10.46;100.00
39141;BME280;24875;48.436;10.298;2022-10-28T00:16:05;97143.78;;;10.54;100.00
39141;BME280;24875;48.436;10.298;2022-10-28T00:18:32;97146.13;;;10.39;100.00
39141;BME280;24875;48.436;10.298;2022-10-28T00:21:00;97150.25;;;10.42;100.00
39141;BME280;24875;48.436;10.298;2022-10-28T00:23:27;97144.13;;;10.33;100.00
39141;BME280;24875;48.436;10.298;2022-10-28T00:25:54;97146.31;;;10.21;100.00
39141;BME280;24875;48.436;10.298;2022-10-28T00:28:21;97150.44;;;10.23;100.00
39141;BME280;24875;48.436;10.298;2022-10-28T00:30:48;97150.22;;;10.17;100.00
39141;BME280;24875;48.436;10.298;2022-10-28T00:33:14;97145.50;;;10.20;100.00
39141;BME280;24875;48.436;10.298;2022-10-28T00:35:41;97150.53;;;10.14;100.00
39141;BME280;24875;48.436;10.298;2022-10-28T00:38:07;97150.84;;;10.11;100.00
39141;BME280;24875;48.436;10.298;2022-10-28T00:40:34;97144.16;;;10.16;100.00
39141;BME280;24875;48.436;10.298;2022-10-28T00:43:01;97144.97;;;10.17;100.00
39141;BME280;24875;48.436;10.298;2022-10-28T00:45:29;97140.16;;;10.12;100.00
39141;BME280;24875;48.436;10.298;2022-10-28T00:47:59;97143.41;;;10.06;100.00
39141;BME280;24875;48.436;10.298;2022-10-28T00:50:40;97148.06;;;10.12;100.00
39141;BME280;24875;48.436;10.298;2022-10-28T00:53:10;97146.09;;;10.14;100.00
39141;BME280;24875;48.436;10.298;2022-10-28T00:55:38;97148.94;;;10.21;100.00
39141;BME280;24875;48.436;10.298;2022-10-28T00:58:05;97147.16;;;10.21;100.00
39141;BME280;24875;48.436;10.298;2022-10-28T01:00:35;97143.53;;;10.22;100.00
39141;BME280;24875;48.436;10.298;2022-10-28T01:03:02;97146.47;;;10.19;100.00
39141;BME280;24875;48.436;10.298;2022-10-28T01:05:31;97132.53;;;10.27;100.00
39141;BME280;24875;48.436;10.298;2022-10-28T01:08:00;97142.84;;;10.37;100.00
39141;BME280;24875;48.436;10.298;2022-10-28T01:10:38;97126.09;;;10.46;100.00
39141;BME280;24875;48.436;10.298;2022-10-28T01:13:14;97128.94;;;10.53;100.00
39141;BME280;24875;48.436;10.298;2022-10-28T01:15:49;97131.25;;;10.56;100.00
39141;BME280;24875;48.436;10.298;2022-10-28T01:18:22;97124.41;;;10.63;100.00
39141;BME280;24875;48.436;10.298;2022-10-28T01:21:11;97127.31;;;10.60;100.00
39141;BME280;24875;48.436;10.298;2022-10-28T01:23:51;97125.63;;;10.51;100.00
39141;BME280;24875;48.436;10.298;2022-10-28T01:26:48;97131.97;;;10.40;100.00
39141;BME280;24875;48.436;10.298;2022-10-28T01:29:54;97136.84;;;10.53;100.00
39141;BME280;24875;48.436;10.298;2022-10-28T01:32:30;97128.84;;;10.45;100.00
39141;BME280;24875;48.436;10.298;2022-10-28T01:35:08;97128.38;;;10.41;100.00
39141;BME280;24875;48.436;10.298;2022-10-28T01:37:41;97124.75;;;10.42;100.00
39141;BME280;24875;48.436;10.298;2022-10-28T01:40:16;97121.66;;;10.47;100.00
39141;BME280;24875;48.436;10.298;2022-10-28T01:42:49;97128.25;;;10.51;100.00
39141;BME280;24875;48.436;10.298;2022-10-28T01:45:24;97123.88;;;10.59;100.00
39141;BME280;24875;48.436;10.298;2022-10-28T01:47:57;97121.88;;;10.61;100.00
39141;BME280;24875;48.436;10.298;2022-10-28T01:50:29;97124.53;;;10.61;100.00
39141;BME280;24875;48.436;10.298;2022-10-28T01:53:01;97122.22;;;10.58;100.00
39141;BME280;24875;48.436;10.298;2022-10-28T01:55:32;97114.84;;;10.62;100.00
39141;BME280;24875;48.436;10.298;2022-10-28T01:58:00;97119.94;;;10.63;100.00
39141;BME280;24875;48.436;10.298;2022-10-28T02:00:30;97109.56;;;10.62;100.00
39141;BME280;24875;48.436;10.298;2022-10-28T02:02:58;97107.72;;;10.62;100.00
39141;BME280;24875;48.436;10.298;2022-10-28T02:05:41;97099.88;;;10.70;100.00
39141;BME280;24875;48.436;10.298;2022-10-28T02:08:21;97105.00;;;10.72;100.00
39141;BME280;24875;48.436;10.298;2022-10-28T02:11:00;97100.34;;;10.66;100.00
39141;BME280;24875;48.436;10.298;2022-10-28T02:13:38;97096.09;;;10.73;100.00
39141;BME280;24875;48.436;10.298;2022-10-28T02:16:15;97102.56;;;10.78;100.00
39141;BME280;24875;48.436;10.298;2022-10-28T02:18:50;97101.19;;;10.74;100.00
39141;BME280;24875;48.436;10.298;2022-10-28T02:21:26;97103.63;;;10.68;100.00
39141;BME280;24875;48.436;10.298;2022-10-28T02:24:01;97111.09;;;10.72;100.00
39141;BME280;24875;48.436;10.298;2022-10-28T02:26:35;97101.50;;;10.63;100.00
39141;BME280;24875;48.436;10.298;2022-10-28T02:29:05;97102.78;;;10.59;100.00
39141;BME280;24875;48.436;10.298;2022-10-28T02:31:36;97098.66;;;10.57;100.00
39141;BME280;24875;48.436;10.298;2022-10-28T02:34:16;97099.75;;;10.46;100.00
39141;BME280;24875;48.436;10.298;2022-10-28T02:36:46;97099.66;;;10.38;100.00
39141;BME280;24875;48.436;10.298;2022-10-28T02:39:15;97089.09;;;10.31;100.00
39141;BME280;24875;48.436;10.298;2022-10-28T02:41:49;97093.28;;;10.41;100.00
39141;BME280;24875;48.436;10.298;2022-10-28T02:44:20;97090.06;;;10.30;100.00
39141;BME280;24875;48.436;10.298;2022-10-28T02:46:51;97092.59;;;10.14;100.00
39141;BME280;24875;48.436;10.298;2022-10-28T02:49:22;97089.81;;;10.15;100.00
39141;BME280;24875;48.436;10.298;2022-10-28T02:51:53;97089.50;;;10.18;100.00
39141;BME280;24875;48.436;10.298;2022-10-28T02:54:23;97091.69;;;10.23;100.00
39141;BME280;24875;48.436;10.298;2022-10-28T02:56:56;97119.53;;;9.73;100.00
39141;BME280;24875;48.436;10.298;2022-10-28T02:59:25;97125.47;;;9.58;100.00
39141;BME280;24875;48.436;10.298;2022-10-28T03:01:51;97116.91;;;9.73;100.00
39141;BME280;24875;48.436;10.298;2022-10-28T03:04:18;97111.16;;;9.77;100.00
39141;BME280;24875;48.436;10.298;2022-10-28T03:06:46;97110.03;;;9.80;100.00
39141;BME280;24875;48.436;10.298;2022-10-28T03:09:12;97108.25;;;9.80;100.00
39141;BME280;24875;48.436;10.298;2022-10-28T03:11:39;97103.81;;;9.81;100.00
39141;BME280;24875;48.436;10.298;2022-10-28T03:14:05;97097.88;;;9.62;100.00
39141;BME280;24875;48.436;10.298;2022-10-28T03:16:32;97084.50;;;9.72;100.00
39141;BME280;24875;48.436;10.298;2022-10-28T03:18:58;97099.53;;;9.80;100.00
39141;BME280;24875;48.436;10.298;2022-10-28T03:21:25;97097.13;;;9.86;100.00
39141;BME280;24875;48.436;10.298;2022-10-28T03:23:53;97103.84;;;9.98;100.00
39141;BME280;24875;48.436;10.298;2022-10-28T03:26:20;97107.88;;;9.93;100.00
39141;BME280;24875;48.436;10.298;2022-10-28T03:28:46;97114.13;;;9.92;100.00
39141;BME280;24875;48.436;10.298;2022-10-28T03:31:13;97115.88;;;10.01;100.00
39141;BME280;24875;48.436;10.298;2022-10-28T03:33:40;97108.13;;;9.99;100.00
39141;BME280;24875;48.436;10.298;2022-10-28T03:36:06;97105.78;;;9.96;100.00
39141;BME280;24875;48.436;10.298;2022-10-28T03:38:33;97103.97;;;9.79;100.00
39141;BME280;24875;48.436;10.298;2022-10-28T03:41:01;97105.38;;;9.91;100.00
39141;BME280;24875;48.436;10.298;2022-10-28T03:43:28;97104.66;;;9.81;100.00
39141;BME280;24875;48.436;10.298;2022-10-28T03:45:54;97094.50;;;9.69;100.00
39141;BME280;24875;48.436;10.298;2022-10-28T03:48:21;97099.91;;;9.68;100.00
39141;BME280;24875;48.436;10.298;2022-10-28T03:50:51;97100.31;;;9.72;100.00
39141;BME280;24875;48.436;10.298;2022-10-28T03:53:17;97094.94;;;9.65;100.00
39141;BME280;24875;48.436;10.298;2022-10-28T03:55:50;97089.00;;;9.80;100.00
39141;BME280;24875;48.436;10.298;2022-10-28T03:58:18;97089.91;;;9.71;100.00
39141;BME280;24875;48.436;10.298;2022-10-28T04:00:46;97085.47;;;9.71;100.00
39141;BME280;24875;48.436;10.298;2022-10-28T04:03:13;97096.81;;;9.72;100.00
39141;BME280;24875;48.436;10.298;2022-10-28T04:05:39;97085.47;;;9.71;100.00
39141;BME280;24875;48.436;10.298;2022-10-28T04:08:06;97088.34;;;9.78;100.00
39141;BME280;24875;48.436;10.298;2022-10-28T04:10:32;97094.78;;;9.83;100.00
39141;BME280;24875;48.436;10.298;2022-10-28T04:12:59;97097.47;;;9.91;100.00
39141;BME280;24875;48.436;10.298;2022-10-28T04:15:27;97098.25;;;10.01;100.00
39141;BME280;24875;48.436;10.298;2022-10-28T04:17:54;97103.84;;;9.98;100.00
39141;BME280;24875;48.436;10.298;2022-10-28T04:20:20;97104.81;;;9.97;100.00
39141;BME280;24875;48.436;10.298;2022-10-28T04:22:47;97093.59;;;9.95;100.00
39141;BME280;24875;48.436;10.298;2022-10-28T04:25:14;97093.88;;;9.92;100.00
39141;BME280;24875;48.436;10.298;2022-10-28T04:27:42;97084.84;;;9.95;100.00
39141;BME280;24875;48.436;10.298;2022-10-28T04:30:10;97081.94;;;9.98;100.00
39141;BME280;24875;48.436;10.298;2022-10-28T04:32:38;97086.38;;;9.97;100.00
39141;BME280;24875;48.436;10.298;2022-10-28T04:35:05;97101.13;;;9.90;100.00
39141;BME280;24875;48.436;10.298;2022-10-28T04:37:32;97110.44;;;10.02;100.00
39141;BME280;24875;48.436;10.298;2022-10-28T04:39:58;97106.47;;;9.98;100.00
39141;BME280;24875;48.436;10.298;2022-10-28T04:42:25;97097.06;;;9.96;100.00
39141;BME280;24875;48.436;10.298;2022-10-28T04:44:52;97098.84;;;9.95;100.00
39141;BME280;24875;48.436;10.298;2022-10-28T04:47:18;97095.38;;;9.95;100.00
39141;BME280;24875;48.436;10.298;2022-10-28T04:49:46;97094.97;;;9.99;100.00
39141;BME280;24875;48.436;10.298;2022-10-28T04:52:13;97087.56;;;10.03;100.00
39141;BME280;24875;48.436;10.298;2022-10-28T04:54:40;97082.78;;;9.98;100.00
39141;BME280;24875;48.436;10.298;2022-10-28T04:57:06;97081.63;;;10.01;100.00
39141;BME280;24875;48.436;10.298;2022-10-28T04:59:33;97074.13;;;10.06;100.00
39141;BME280;24875;48.436;10.298;2022-10-28T05:01:59;97072.81;;;10.10;100.00
39141;BME280;24875;48.436;10.298;2022-10-28T05:04:26;97071.97;;;10.09;100.00
39141;BME280;24875;48.436;10.298;2022-10-28T05:06:54;97068.75;;;10.15;100.00
39141;BME280;24875;48.436;10.298;2022-10-28T05:09:20;97073.47;;;10.12;100.00
39141;BME280;24875;48.436;10.298;2022-10-28T05:11:47;97081.91;;;10.15;100.00
39141;BME280;24875;48.436;10.298;2022-10-28T05:14:13;97081.53;;;10.10;100.00
39141;BME280;24875;48.436;10.298;2022-10-28T05:16:40;97102.97;;;10.15;100.00
39141;BME280;24875;48.436;10.298;2022-10-28T05:19:06;97100.97;;;10.34;100.00
39141;BME280;24875;48.436;10.298;2022-10-28T05:21:33;97112.53;;;10.16;100.00
39141;BME280;24875;48.436;10.298;2022-10-28T05:24:01;97110.88;;;10.15;100.00
39141;BME280;24875;48.436;10.298;2022-10-28T05:26:27;97111.72;;;10.16;100.00
39141;BME280;24875;48.436;10.298;2022-10-28T05:28:54;97104.94;;;10.13;100.00
39141;BME280;24875;48.436;10.298;2022-10-28T05:31:20;97100.59;;;10.04;100.00
39141;BME280;24875;48.436;10.298;2022-10-28T05:33:47;97100.22;;;9.99;100.00
39141;BME280;24875;48.436;10.298;2022-10-28T05:36:13;97107.34;;;10.07;100.00
39141;BME280;24875;48.436;10.298;2022-10-28T05:38:40;97100.06;;;10.01;100.00
39141;BME280;24875;48.436;10.298;2022-10-28T05:41:10;97098.69;;;10.14;100.00
39141;BME280;24875;48.436;10.298;2022-10-28T05:43:37;97092.59;;;10.14;100.00
39141;BME280;24875;48.436;10.298;2022-10-28T05:46:04;97105.28;;;10.18;100.00
39141;BME280;24875;48.436;10.298;2022-10-28T05:48:30;97107.47;;;10.23;100.00
39141;BME280;24875;48.436;10.298;2022-10-28T05:50:57;97112.75;;;10.23;100.00
39141;BME280;24875;48.436;10.298;2022-10-28T05:53:23;97115.00;;;10.18;100.00
39141;BME280;24875;48.436;10.298;2022-10-28T05:55:49;97116.84;;;10.17;100.00
39141;BME280;24875;48.436;10.298;2022-10-28T05:58:17;97120.50;;;10.24;100.00
39141;BME280;24875;48.436;10.298;2022-10-28T06:00:44;97116.00;;;10.17;100.00
39141;BME280;24875;48.436;10.298;2022-10-28T06:03:11;97112.41;;;10.00;100.00
39141;BME280;24875;48.436;10.298;2022-10-28T06:05:39;97112.03;;;9.95;100.00
39141;BME280;24875;48.436;10.298;2022-10-28T06:08:06;97107.03;;;9.92;100.00
39141;BME280;24875;48.436;10.298;2022-10-28T06:10:33;97108.50;;;10.04;100.00
39141;BME280;24875;48.436;10.298;2022-10-28T06:12:59;97107.50;;;10.05;100.00
39141;BME280;24875;48.436;10.298;2022-10-28T06:15:27;97096.81;;;10.83;100.00
39141;BME280;24875;48.436;10.298;2022-10-28T06:17:54;97102.69;;;10.77;100.00
39141;BME280;24875;48.436;10.298;2022-10-28T06:20:20;97109.97;;;10.75;100.00
39141;BME280;24875;48.436;10.298;2022-10-28T06:22:48;97096.75;;;10.67;100.00
39141;BME280;24875;48.436;10.298;2022-10-28T06:25:14;97104.13;;;10.63;100.00
39141;BME280;24875;48.436;10.298;2022-10-28T06:27:41;97103.25;;;10.55;100.00
39141;BME280;24875;48.436;10.298;2022-10-28T06:30:09;97105.94;;;10.63;100.00
39141;BME280;24875;48.436;10.298;2022-10-28T06:32:37;97096.22;;;10.63;100.00
39141;BME280;24875;48.436;10.298;2022-10-28T06:35:04;97098.38;;;10.68;100.00
39141;BME280;24875;48.436;10.298;2022-10-28T06:37:30;97098.38;;;10.68;100.00
39141;BME280;24875;48.436;10.298;2022-10-28T06:39:57;97100.22;;;10.75;100.00
39141;BME280;24875;48.436;10.298;2022-10-28T06:42:24;97096.28;;;10.79;100.00
39141;BME280;24875;48.436;10.298;2022-10-28T06:44:51;97096.47;;;10.86;100.00
39141;BME280;24875;48.436;10.298;2022-10-28T06:47:19;97100.78;;;10.87;100.00
39141;BME280;24875;48.436;10.298;2022-10-28T06:49:47;97102.78;;;10.93;100.00
39141;BME280;24875;48.436;10.298;2022-10-28T06:52:13;97102.44;;;10.88;100.00
39141;BME280;24875;48.436;10.298;2022-10-28T06:54:40;97106.41;;;10.92;100.00
39141;BME280;24875;48.436;10.298;2022-10-28T06:57:07;97117.03;;;11.07;100.00
39141;BME280;24875;48.436;10.298;2022-10-28T06:59:34;97125.09;;;11.06;100.00
39141;BME280;24875;48.436;10.298;2022-10-28T07:02:00;97138.78;;;11.09;100.00
39141;BME280;24875;48.436;10.298;2022-10-28T07:04:28;97140.16;;;11.21;100.00
39141;BME280;24875;48.436;10.298;2022-10-28T07:06:56;97133.78;;;11.32;100.00
39141;BME280;24875;48.436;10.298;2022-10-28T07:09:23;97133.44;;;11.35;100.00
39141;BME280;24875;48.436;10.298;2022-10-28T07:11:50;97135.47;;;11.41;100.00
39141;BME280;24875;48.436;10.298;2022-10-28T07:14:16;97134.66;;;11.48;100.00
39141;BME280;24875;48.436;10.298;2022-10-28T07:16:43;97133.22;;;11.54;100.00
39141;BME280;24875;48.436;10.298;2022-10-28T07:19:09;97145.63;;;11.61;100.00
39141;BME280;24875;48.436;10.298;2022-10-28T07:21:36;97149.06;;;11.61;100.00
39141;BME280;24875;48.436;10.298;2022-10-28T07:24:04;97137.72;;;11.77;100.00
39141;BME280;24875;48.436;10.298;2022-10-28T07:26:31;97139.72;;;11.75;100.00
39141;BME280;24875;48.436;10.298;2022-10-28T07:28:57;97148.28;;;11.85;100.00
39141;BME280;24875;48.436;10.298;2022-10-28T07:31:24;97154.88;;;11.81;100.00
39141;BME280;24875;48.436;10.298;2022-10-28T07:33:52;97153.56;;;11.85;100.00
39141;BME280;24875;48.436;10.298;2022-10-28T07:36:19;97154.25;;;11.95;100.00
39141;BME280;24875;48.436;10.298;2022-10-28T07:38:47;97155.25;;;12.10;100.00
39141;BME280;24875;48.436;10.298;2022-10-28T07:41:15;97159.56;;;12.11;100.00
39141;BME280;24875;48.436;10.298;2022-10-28T07:43:42;97158.25;;;12.15;100.00
39141;BME280;24875;48.436;10.298;2022-10-28T07:46:09;97157.72;;;12.27;100.00
39141;BME280;24875;48.436;10.298;2022-10-28T07:48:36;97150.78;;;12.42;100.00
39141;BME280;24875;48.436;10.298;2022-10-28T07:51:04;97154.28;;;12.50;100.00
39141;BME280;24875;48.436;10.298;2022-10-28T07:53:31;97156.06;;;12.50;100.00
39141;BME280;24875;48.436;10.298;2022-10-28T07:55:59;97175.72;;;12.47;100.00
39141;BME280;24875;48.436;10.298;2022-10-28T07:58:29;97164.00;;;12.66;100.00
39141;BME280;24875;48.436;10.298;2022-10-28T08:00:58;97159.53;;;12.82;100.00
39141;BME280;24875;48.436;10.298;2022-10-28T08:03:26;97148.91;;;12.98;100.00
39141;BME280;24875;48.436;10.298;2022-10-28T08:05:58;97148.53;;;13.17;100.00
39141;BME280;24875;48.436;10.298;2022-10-28T08:08:25;97152.50;;;13.13;100.00
39141;BME280;24875;48.436;10.298;2022-10-28T08:10:51;97146.47;;;13.35;100.00
39141;BME280;24875;48.436;10.298;2022-10-28T08:13:18;97146.56;;;13.49;100.00
39141;BME280;24875;48.436;10.298;2022-10-28T08:15:51;97149.47;;;13.70;100.00
39141;BME280;24875;48.436;10.298;2022-10-28T08:18:18;97153.88;;;13.77;100.00
39141;BME280;24875;48.436;10.298;2022-10-28T08:20:45;97156.97;;;13.89;100.00
39141;BME280;24875;48.436;10.298;2022-10-28T08:23:12;97151.06;;;14.01;100.00
39141;BME280;24875;48.436;10.298;2022-10-28T08:25:46;97157.53;;;14.29;100.00
39141;BME280;24875;48.436;10.298;2022-10-28T08:28:13;97151.94;;;14.24;100.00
39141;BME280;24875;48.436;10.298;2022-10-28T08:30:39;97154.34;;;14.33;100.00
39141;BME280;24875;48.436;10.298;2022-10-28T08:33:07;97151.16;;;14.38;100.00
39141;BME280;24875;48.436;10.298;2022-10-28T08:35:33;97146.66;;;14.38;100.00
39141;BME280;24875;48.436;10.298;2022-10-28T08:38:00;97149.16;;;14.40;100.00
39141;BME280;24875;48.436;10.298;2022-10-28T08:40:31;97154.22;;;14.49;100.00
39141;BME280;24875;48.436;10.298;2022-10-28T08:43:03;97152.81;;;14.39;100.00
39141;BME280;24875;48.436;10.298;2022-10-28T08:45:40;97139.88;;;14.58;100.00
39141;BME280;24875;48.436;10.298;2022-10-28T08:48:18;97141.25;;;14.68;100.00
39141;BME280;24875;48.436;10.298;2022-10-28T08:50:50;97138.25;;;14.71;100.00
39141;BME280;24875;48.436;10.298;2022-10-28T08:53:20;97133.88;;;14.78;100.00
39141;BME280;24875;48.436;10.298;2022-10-28T08:55:51;97128.47;;;14.72;100.00
39141;BME280;24875;48.436;10.298;2022-10-28T08:58:22;97131.06;;;14.94;100.00
39141;BME280;24875;48.436;10.298;2022-10-28T09:00:52;97124.47;;;15.05;100.00
39141;BME280;24875;48.436;10.298;2022-10-28T09:03:22;97122.19;;;15.16;100.00
39141;BME280;24875;48.436;10.298;2022-10-28T09:05:53;97126.22;;;15.26;100.00
39141;BME280;24875;48.436;10.298;2022-10-28T09:08:24;97127.81;;;15.21;100.00
39141;BME280;24875;48.436;10.298;2022-10-28T09:11:07;97124.22;;;15.43;100.00
39141;BME280;24875;48.436;10.298;2022-10-28T09:13:49;97130.69;;;15.55;100.00
39141;BME280;24875;48.436;10.298;2022-10-28T09:16:26;97121.88;;;15.69;100.00
39141;BME280;24875;48.436;10.298;2022-10-28T09:19:02;97118.47;;;15.60;99.26
39141;BME280;24875;48.436;10.298;2022-10-28T09:21:40;97131.75;;;15.75;97.07
39141;BME280;24875;48.436;10.298;2022-10-28T09:24:14;97131.81;;;15.81;96.72
39141;BME280;24875;48.436;10.298;2022-10-28T09:26:51;97129.50;;;15.92;97.82
39141;BME280;24875;48.436;10.298;2022-10-28T09:29:35;97130.38;;;15.99;97.24
39141;BME280;24875;48.436;10.298;2022-10-28T09:32:13;97132.66;;;16.02;97.83
39141;BME280;24875;48.436;10.298;2022-10-28T09:34:46;97121.53;;;16.13;97.43
39141;BME280;24875;48.436;10.298;2022-10-28T09:37:18;97129.19;;;16.02;95.94
39141;BME280;24875;48.436;10.298;2022-10-28T09:39:48;97134.19;;;16.11;96.99
39141;BME280;24875;48.436;10.298;2022-10-28T09:42:19;97134.84;;;16.34;95.47
39141;BME280;24875;48.436;10.298;2022-10-28T09:44:50;97132.25;;;16.41;95.86
39141;BME280;24875;48.436;10.298;2022-10-28T09:47:22;97133.19;;;16.54;93.73
39141;BME280;24875;48.436;10.298;2022-10-28T09:49:55;97129.28;;;17.05;98.12
39141;BME280;24875;48.436;10.298;2022-10-28T09:52:29;97118.41;;;17.73;97.87
39141;BME280;24875;48.436;10.298;2022-10-28T09:54:57;97132.19;;;17.90;91.01
39141;BME280;24875;48.436;10.298;2022-10-28T09:57:29;97131.34;;;17.89;85.67
39141;BME280;24875;48.436;10.298;2022-10-28T09:59:56;97137.09;;;17.80;85.91
39141;BME280;24875;48.436;10.298;2022-10-28T10:02:26;97143.50;;;17.98;88.49
39141;BME280;24875;48.436;10.298;2022-10-28T10:04:55;97133.00;;;17.90;86.16
39141;BME280;24875;48.436;10.298;2022-10-28T10:07:29;97136.09;;;17.87;85.72
39141;BME280;24875;48.436;10.298;2022-10-28T10:09:58;97145.22;;;17.59;89.25
39141;BME280;24875;48.436;10.298;2022-10-28T10:12:27;97139.88;;;17.59;89.68
39141;BME280;24875;48.436;10.298;2022-10-28T10:14:57;97134.53;;;17.53;89.68
39141;BME280;24875;48.436;10.298;2022-10-28T10:17:26;97136.13;;;17.54;89.07
39141;BME280;24875;48.436;10.298;2022-10-28T10:20:02;97136.38;;;17.59;89.51
39141;BME280;24875;48.436;10.298;2022-10-28T10:22:30;97140.25;;;17.56;90.86
39141;BME280;24875;48.436;10.298;2022-10-28T10:24:57;97130.56;;;17.49;92.85
39141;BME280;24875;48.436;10.298;2022-10-28T10:27:25;97126.97;;;17.69;91.54
39141;BME280;24875;48.436;10.298;2022-10-28T10:29:53;97128.41;;;17.65;92.87
39141;BME280;24875;48.436;10.298;2022-10-28T10:32:22;97127.19;;;17.74;92.46
39141;BME280;24875;48.436;10.298;2022-10-28T10:34:55;97135.66;;;17.84;92.28
39141;BME280;24875;48.436;10.298;2022-10-28T10:37:23;97128.72;;;17.96;91.24
39141;BME280;24875;48.436;10.298;2022-10-28T10:40:03;97126.09;;;18.09;89.86
39141;BME280;24875;48.436;10.298;2022-10-28T10:42:31;97127.31;;;18.00;91.07
39141;BME280;24875;48.436;10.298;2022-10-28T10:45:00;97139.63;;;18.14;91.30
39141;BME280;24875;48.436;10.298;2022-10-28T10:47:27;97139.81;;;18.06;91.30
39141;BME280;24875;48.436;10.298;2022-10-28T10:50:16;97140.53;;;18.33;88.49
39141;BME280;24875;48.436;10.298;2022-10-28T10:52:49;97137.66;;;18.41;89.83
39141;BME280;24875;48.436;10.298;2022-10-28T10:55:22;97140.75;;;18.38;91.88
39141;BME280;24875;48.436;10.298;2022-10-28T10:57:49;97140.31;;;18.29;88.46
39141;BME280;24875;48.436;10.298;2022-10-28T11:00:19;97130.72;;;18.79;85.75
39141;BME280;24875;48.436;10.298;2022-10-28T11:02:47;97138.09;;;18.77;81.87
39141;BME280;24875;48.436;10.298;2022-10-28T11:05:19;97136.25;;;18.97;78.60
39141;BME280;24875;48.436;10.298;2022-10-28T11:07:49;97140.38;;;19.06;79.45
39141;BME280;24875;48.436;10.298;2022-10-28T11:10:22;97122.06;;;19.16;80.53
39141;BME280;24875;48.436;10.298;2022-10-28T11:12:50;97121.66;;;19.19;77.85
39141;BME280;24875;48.436;10.298;2022-10-28T11:15:23;97124.47;;;19.37;77.18
39141;BME280;24875;48.436;10.298;2022-10-28T11:17:55;97116.69;;;19.29;78.02
39141;BME280;24875;48.436;10.298;2022-10-28T11:20:23;97116.31;;;19.12;78.15
39141;BME280;24875;48.436;10.298;2022-10-28T11:23:00;97112.22;;;19.10;79.16
39141;BME280;24875;48.436;10.298;2022-10-28T11:25:34;97103.38;;;19.03;79.64
39141;BME280;24875;48.436;10.298;2022-10-28T11:28:17;97104.41;;;19.15;81.50
39141;BME280;24875;48.436;10.298;2022-10-28T11:30:53;97099.84;;;19.22;82.26
39141;BME280;24875;48.436;10.298;2022-10-28T11:33:32;97096.94;;;19.43;75.49
39141;BME280;24875;48.436;10.298;2022-10-28T11:36:10;97082.63;;;19.68;76.00
39141;BME280;24875;48.436;10.298;2022-10-28T11:39:13;97082.34;;;19.82;76.35
39141;BME280;24875;48.436;10.298;2022-10-28T11:41:51;97092.25;;;19.75;75.87
39141;BME280;24875;48.436;10.298;2022-10-28T11:44:34;97078.16;;;19.99;73.75
39141;BME280;24875;48.436;10.298;2022-10-28T11:47:14;97077.13;;;20.00;76.57
39141;BME280;24875;48.436;10.298;2022-10-28T11:50:05;97078.75;;;20.08;76.30
39141;BME280;24875;48.436;10.298;2022-10-28T11:52:48;97078.16;;;19.99;75.25
39141;BME280;24875;48.436;10.298;2022-10-28T11:55:29;97076.72;;;20.27;73.40
39141;BME280;24875;48.436;10.298;2022-10-28T11:58:05;97076.69;;;20.34;73.97
39141;BME280;24875;48.436;10.298;2022-10-28T12:00:44;97066.88;;;20.28;75.54
39141;BME280;24875;48.436;10.298;2022-10-28T12:03:25;97067.00;;;20.39;74.59
39141;BME280;24875;48.436;10.298;2022-10-28T12:06:02;97064.78;;;20.30;75.17
39141;BME280;24875;48.436;10.298;2022-10-28T12:08:43;97068.50;;;20.29;75.77
39141;BME280;24875;48.436;10.298;2022-10-28T12:11:27;97058.38;;;20.31;76.89
39141;BME280;24875;48.436;10.298;2022-10-28T12:14:04;97055.75;;;20.24;78.53
39141;BME280;24875;48.436;10.298;2022-10-28T12:16:39;97060.41;;;20.11;79.64
39141;BME280;24875;48.436;10.298;2022-10-28T12:19:11;97049.44;;;20.19;78.73
39141;BME280;24875;48.436;10.298;2022-10-28T12:21:43;97047.97;;;20.23;77.96
39141;BME280;24875;48.436;10.298;2022-10-28T12:24:13;97045.56;;;20.15;78.17
39141;BME280;24875;48.436;10.298;2022-10-28T12:26:47;97046.25;;;20.28;76.81
39141;BME280;24875;48.436;10.298;2022-10-28T12:29:17;97043.31;;;20.36;76.40
39141;BME280;24875;48.436;10.298;2022-10-28T12:31:48;97042.34;;;20.31;76.29
39141;BME280;24875;48.436;10.298;2022-10-28T12:34:21;97033.16;;;20.45;76.32
39141;BME280;24875;48.436;10.298;2022-10-28T12:36:51;97033.72;;;20.29;76.74
39141;BME280;24875;48.436;10.298;2022-10-28T12:39:24;97027.97;;;20.50;76.88
39141;BME280;24875;48.436;10.298;2022-10-28T12:41:57;97035.88;;;20.63;75.64
39141;BME280;24875;48.436;10.298;2022-10-28T12:44:26;97036.81;;;20.50;75.29
39141;BME280;24875;48.436;10.298;2022-10-28T12:47:02;97030.59;;;20.81;74.36
39141;BME280;24875;48.436;10.298;2022-10-28T12:49:35;97032.72;;;20.96;74.52
39141;BME280;24875;48.436;10.298;2022-10-28T12:52:12;97035.91;;;21.05;70.72
39141;BME280;24875;48.436;10.298;2022-10-28T12:54:48;97037.47;;;21.30;71.70
39141;BME280;24875;48.436;10.298;2022-10-28T12:57:19;97037.94;;;21.27;70.86
39141;BME280;24875;48.436;10.298;2022-10-28T12:59:51;97044.91;;;21.10;70.60
39141;BME280;24875;48.436;10.298;2022-10-28T13:02:23;97048.03;;;21.07;70.74